createdAt,value
2023-11-03T00:02:21.908Z,7.65
2023-11-03T00:07:23.820Z,7.62
2023-11-03T00:12:28.250Z,7.58
2023-11-03T00:17:29.924Z,7.58
2023-11-03T00:22:31.555Z,7.55
2023-11-03T00:27:33.609Z,7.47
2023-11-03T00:32:36.343Z,7.48
2023-11-03T00:37:40.127Z,7.47
2023-11-03T00:42:43.887Z,7.47
2023-11-03T00:47:45.667Z,7.42
2023-11-03T00:52:47.321Z,7.43
2023-11-03T00:57:49.525Z,7.42
2023-11-03T01:02:51.435Z,7.41
2023-11-03T01:07:53.978Z,7.37
2023-11-03T01:12:58.380Z,7.38
2023-11-03T01:18:00.054Z,7.38
2023-11-03T01:23:01.744Z,7.40
2023-11-03T01:28:03.772Z,7.32
2023-11-03T01:33:05.387Z,7.38
2023-11-03T01:38:06.994Z,7.42
2023-11-03T01:43:09.577Z,7.42
2023-11-03T01:48:11.216Z,7.48
2023-11-03T01:53:16.158Z,7.47
2023-11-03T01:58:17.850Z,7.51
2023-11-03T02:03:20.186Z,7.51
2023-11-03T02:08:21.793Z,7.58
2023-11-03T02:13:23.295Z,7.56
2023-11-03T02:18:25.169Z,7.55
2023-11-03T02:23:26.732Z,7.58
2023-11-03T02:28:28.279Z,7.54
2023-11-03T02:33:30.119Z,7.61
2023-11-03T02:38:31.615Z,7.61
2023-11-03T02:43:33.140Z,7.60
2023-11-03T02:48:35.138Z,7.64
2023-11-03T02:53:36.696Z,7.66
2023-11-03T02:58:39.234Z,7.68
2023-11-03T03:03:42.109Z,7.68
2023-11-03T03:08:43.666Z,7.71
2023-11-03T03:13:45.297Z,7.68
2023-11-03T03:18:50.125Z,7.81
2023-11-03T03:23:51.785Z,7.81
2023-11-03T03:28:53.398Z,7.82
2023-11-03T03:33:54.985Z,7.81
2023-11-03T03:38:56.518Z,7.86
2023-11-03T03:43:58.056Z,7.88
2023-11-03T03:49:00.433Z,7.87
2023-11-03T03:54:01.956Z,7.93
2023-11-03T03:59:03.501Z,8.04
2023-11-03T04:04:05.245Z,8.11
2023-11-03T04:09:06.973Z,8.12
2023-11-03T04:14:08.703Z,8.18
2023-11-03T04:19:11.264Z,8.23
2023-11-03T04:24:12.786Z,8.27
2023-11-03T04:29:14.323Z,8.35
2023-11-03T04:34:16.007Z,8.37
2023-11-03T04:39:18.180Z,8.25
2023-11-03T04:44:19.762Z,8.25
2023-11-03T04:49:21.350Z,8.31
2023-11-03T04:54:22.904Z,8.24
2023-11-03T04:59:24.723Z,8.19
2023-11-03T05:04:26.324Z,8.25
2023-11-03T05:09:27.958Z,8.23
2023-11-03T05:14:29.484Z,8.27
2023-11-03T05:19:31.160Z,8.30
2023-11-03T05:24:32.756Z,8.32
2023-11-03T05:29:35.322Z,8.33
2023-11-03T05:34:36.941Z,8.34
2023-11-03T05:39:38.781Z,8.42
2023-11-03T05:44:40.349Z,8.49
2023-11-03T05:49:41.984Z,8.53
2023-11-03T05:54:45.083Z,8.62
2023-11-03T05:59:46.700Z,8.68
2023-11-03T06:04:48.293Z,8.75
2023-11-03T06:09:49.839Z,8.78
2023-11-03T06:14:51.352Z,8.80
2023-11-03T06:19:52.883Z,8.86
2023-11-03T06:24:54.470Z,8.94
2023-11-03T06:29:56.180Z,8.98
2023-11-03T06:34:57.721Z,8.91
2023-11-03T06:39:59.379Z,8.90
2023-11-03T06:45:00.961Z,9.02
2023-11-03T06:50:04.183Z,9.05
2023-11-03T06:55:05.866Z,9.05
2023-11-03T07:00:10.705Z,8.98
2023-11-03T07:05:12.913Z,8.98
2023-11-03T07:10:14.999Z,9.01
2023-11-03T07:15:17.610Z,9.00
2023-11-03T07:20:19.176Z,9.00
2023-11-03T07:25:21.018Z,8.98
2023-11-03T07:30:22.645Z,9.00
2023-11-03T07:35:24.302Z,9.05
2023-11-03T07:40:25.880Z,9.01
2023-11-03T07:45:29.397Z,9.00
2023-11-03T07:50:30.948Z,8.91
2023-11-03T07:55:32.466Z,8.95
2023-11-03T08:00:36.006Z,8.96
2023-11-03T08:05:39.235Z,8.96
2023-11-03T08:10:40.968Z,9.05
2023-11-03T08:15:42.581Z,9.09
2023-11-03T08:20:44.076Z,9.02
2023-11-03T08:25:45.587Z,8.93
2023-11-03T08:30:48.862Z,8.88
2023-11-03T08:35:51.677Z,8.84
2023-11-03T08:40:54.289Z,8.85
2023-11-03T08:45:55.897Z,8.87
2023-11-03T08:50:58.225Z,8.85
2023-11-03T08:56:00.082Z,8.92
2023-11-03T09:01:03.542Z,9.00
2023-11-03T09:06:09.693Z,9.15
2023-11-03T09:11:11.715Z,9.17
2023-11-03T09:16:13.257Z,9.20
2023-11-03T09:21:14.758Z,9.35
2023-11-03T09:26:16.296Z,9.44
2023-11-03T09:31:17.920Z,9.37
2023-11-03T09:36:19.476Z,9.10
2023-11-03T09:41:21.207Z,9.01
2023-11-03T09:46:23.365Z,9.03
2023-11-03T09:51:28.501Z,8.93
2023-11-03T09:56:30.852Z,8.86
2023-11-03T10:01:33.394Z,8.80
2023-11-03T10:06:37.133Z,8.82
2023-11-03T10:11:38.717Z,8.97
2023-11-03T10:16:40.548Z,9.55
2023-11-03T10:21:42.065Z,10.04
2023-11-03T10:26:43.675Z,10.41
2023-11-03T10:31:50.507Z,10.45
2023-11-03T10:36:56.895Z,10.20
2023-11-03T10:42:04.066Z,9.92
2023-11-03T10:47:10.475Z,9.61
2023-11-03T10:52:17.978Z,9.44
2023-11-03T10:57:38.035Z,9.39
2023-11-03T11:03:22.658Z,9.40
2023-11-03T11:08:27.091Z,9.36
2023-11-03T11:13:28.782Z,9.34
2023-11-03T11:18:41.992Z,9.31
2023-11-03T11:23:48.621Z,9.20
2023-11-03T11:28:51.174Z,9.15
2023-11-03T11:34:02.313Z,9.18
2023-11-03T11:39:17.725Z,9.26
2023-11-03T11:44:25.851Z,9.24
2023-11-03T11:49:33.245Z,9.20
2023-11-03T11:54:35.470Z,9.13
2023-11-03T11:59:40.998Z,9.05
2023-11-03T12:04:42.832Z,9.07
2023-11-03T12:09:44.683Z,9.00
2023-11-03T12:14:49.572Z,8.99
2023-11-03T12:19:52.409Z,9.07
2023-11-03T12:24:56.882Z,9.09
2023-11-03T12:30:05.493Z,9.06
2023-11-03T12:35:10.476Z,9.06
2023-11-03T12:40:22.483Z,9.11
2023-11-03T12:45:24.211Z,9.15
2023-11-03T12:50:26.906Z,9.11
2023-11-03T12:55:30.312Z,9.10
2023-11-03T13:00:32.827Z,9.05
2023-11-03T13:05:35.998Z,9.03
2023-11-03T13:10:41.386Z,8.94
2023-11-03T13:15:43.424Z,8.88
2023-11-03T13:20:48.120Z,8.88
2023-11-03T13:25:50.545Z,8.90
2023-11-03T13:30:52.113Z,8.85
2023-11-03T13:35:54.344Z,8.77
2023-11-03T13:40:55.885Z,8.69
2023-11-03T13:46:00.415Z,8.69
2023-11-03T13:51:02.144Z,8.86
2023-11-03T13:56:04.041Z,8.93
2023-11-03T14:01:05.897Z,8.98
2023-11-03T14:06:09.817Z,8.94
2023-11-03T14:11:11.528Z,8.74
2023-11-03T14:16:13.121Z,8.67
2023-11-03T14:21:15.451Z,8.75
2023-11-03T14:26:17.030Z,8.86
2023-11-03T14:31:20.350Z,8.90
2023-11-03T14:36:43.558Z,8.88
2023-11-03T14:41:46.282Z,8.97
2023-11-03T14:46:50.587Z,9.00
2023-11-03T14:51:53.178Z,8.99
2023-11-03T14:56:54.723Z,8.95
2023-11-03T15:01:56.365Z,8.97
2023-11-03T15:06:58.193Z,9.02
2023-11-03T15:12:01.747Z,9.00
2023-11-03T15:17:03.420Z,8.97
2023-11-03T15:22:05.262Z,8.96
2023-11-03T15:27:06.853Z,8.96
2023-11-03T15:32:08.577Z,8.96
2023-11-03T15:37:11.255Z,8.95
2023-11-03T15:42:13.700Z,8.94
2023-11-03T15:47:15.236Z,8.90
2023-11-03T15:52:17.327Z,8.84
2023-11-03T15:57:19.312Z,8.85
2023-11-03T16:02:20.911Z,8.82
2023-11-03T16:07:23.824Z,8.74
2023-11-03T16:12:29.116Z,8.66
2023-11-03T16:17:31.380Z,8.68
2023-11-03T16:22:33.440Z,8.63
2023-11-03T16:27:36.178Z,8.60
2023-11-03T16:32:39.037Z,8.59
2023-11-03T16:37:40.837Z,8.64
2023-11-03T16:42:43.908Z,8.53
2023-11-03T16:47:45.803Z,8.42
2023-11-03T16:52:47.664Z,8.44
2023-11-03T16:57:49.233Z,8.42
2023-11-03T17:02:52.864Z,8.42
2023-11-03T17:07:54.829Z,8.38
2023-11-03T17:13:00.420Z,8.35
2023-11-03T17:18:04.380Z,8.36
2023-11-03T17:23:08.140Z,8.39
2023-11-03T17:28:12.523Z,8.42
2023-11-03T17:33:14.337Z,8.43
2023-11-03T17:38:16.449Z,8.45
2023-11-03T17:43:18.976Z,8.46
2023-11-03T17:48:21.126Z,8.40
2023-11-03T17:53:22.783Z,8.40
2023-11-03T17:58:24.890Z,8.43
2023-11-03T18:03:27.934Z,8.44
2023-11-03T18:08:31.209Z,8.41
2023-11-03T18:13:33.046Z,8.34
2023-11-03T18:18:34.993Z,8.37
2023-11-03T18:23:38.040Z,8.29
2023-11-03T18:28:39.693Z,8.36
2023-11-03T18:33:42.797Z,8.48
2023-11-03T18:38:44.426Z,8.49
2023-11-03T18:43:47.092Z,8.53
2023-11-03T18:48:49.590Z,8.52
2023-11-03T19:04:46.590Z,8.54
2023-11-03T19:09:22.234Z,8.57
2023-11-03T19:14:23.817Z,8.57
2023-11-03T19:19:25.459Z,8.58
2023-11-03T19:24:27.523Z,8.53
2023-11-03T19:29:29.041Z,8.55
2023-11-03T19:34:30.641Z,8.49
2023-11-03T19:39:32.225Z,8.42
2023-11-03T19:44:34.056Z,8.42
2023-11-03T19:49:35.865Z,8.37
2023-11-03T19:54:37.614Z,8.29
2023-11-03T19:59:39.147Z,8.29
2023-11-03T20:04:41.145Z,8.34
2023-11-03T20:09:42.765Z,8.37
2023-11-03T20:14:44.318Z,8.29
2023-11-03T20:19:47.222Z,8.26
2023-11-03T20:24:49.234Z,8.22
2023-11-03T20:29:51.175Z,8.17
2023-11-03T20:34:53.523Z,8.13
2023-11-03T20:39:56.083Z,8.08
2023-11-03T20:45:00.169Z,7.99
2023-11-03T20:50:01.779Z,7.84
2023-11-03T20:55:04.672Z,7.88
2023-11-03T21:00:09.765Z,7.79
2023-11-03T21:05:11.714Z,7.76
2023-11-03T21:10:16.742Z,7.68
2023-11-03T21:15:18.358Z,7.63
2023-11-03T21:20:21.799Z,7.60
2023-11-03T21:25:23.616Z,7.59
2023-11-03T21:30:25.254Z,7.58
2023-11-03T21:35:26.804Z,7.55
2023-11-03T21:40:28.434Z,7.55
2023-11-03T21:45:29.945Z,7.51
2023-11-03T21:50:31.505Z,7.52
2023-11-03T21:55:33.109Z,7.52
2023-11-03T22:00:34.639Z,7.47
2023-11-03T22:05:36.208Z,7.46
2023-11-03T22:10:37.730Z,7.41
2023-11-03T22:15:39.847Z,7.38
2023-11-03T22:20:41.520Z,7.37
2023-11-03T22:25:43.137Z,7.34
2023-11-03T22:30:44.739Z,7.33
2023-11-03T22:35:46.318Z,7.31
2023-11-03T22:40:47.910Z,7.28
2023-11-03T22:45:50.543Z,7.27
2023-11-03T22:50:52.080Z,7.26
2023-11-03T22:55:54.022Z,7.27
2023-11-03T23:00:55.608Z,7.29
2023-11-03T23:05:57.982Z,7.33
2023-11-03T23:10:59.550Z,7.37
2023-11-03T23:16:01.140Z,7.44
2023-11-03T23:21:03.667Z,7.48
2023-11-03T23:26:05.252Z,7.51
2023-11-03T23:31:07.011Z,7.52
2023-11-03T23:36:08.940Z,7.57
2023-11-03T23:41:10.452Z,7.55
2023-11-03T23:46:11.990Z,7.56
2023-11-03T23:51:13.581Z,7.59
2023-11-03T23:56:16.316Z,7.59
